sensor_id;sensor_type;location;lat;lon;timestamp;pressure;altitude;pressure_sealevel;temperature;humidity
14120;BME280;7138;49.246;9.100;2022-09-29T00:00:37;97242.81;;;10.83;94.54
14120;BME280;7138;49.246;9.100;2022-09-29T00:03:05;97241.19;;;10.79;94.36
14120;BME280;7138;49.246;9.100;2022-09-29T00:05:31;97242.16;;;10.75;94.34
14120;BME280;7138;49.246;9.100;2022-09-29T00:07:58;97240.50;;;10.73;94.66
14120;BME280;7138;49.246;9.100;2022-09-29T00:10:24;97244.06;;;10.67;94.92
14120;BME280;7138;49.246;9.100;2022-09-29T00:12:49;97239.88;;;10.63;95.78
14120;BME280;7138;49.246;9.100;2022-09-29T00:15:16;97245.13;;;10.60;95.42
14120;BME280;7138;49.246;9.100;2022-09-29T00:17:41;97244.34;;;10.57;95.50
14120;BME280;7138;49.246;9.100;2022-09-29T00:20:09;97249.53;;;10.55;95.93
14120;BME280;7138;49.246;9.100;2022-09-29T00:22:35;97246.19;;;10.52;96.34
14120;BME280;7138;49.246;9.100;2022-09-29T00:25:00;97241.13;;;10.47;96.62
14120;BME280;7138;49.246;9.100;2022-09-29T00:27:26;97246.41;;;10.43;97.17
14120;BME280;7138;49.246;9.100;2022-09-29T00:29:52;97242.13;;;10.41;97.17
14120;BME280;7138;49.246;9.100;2022-09-29T00:32:18;97237.03;;;10.38;97.18
14120;BME280;7138;49.246;9.100;2022-09-29T00:34:44;97241.34;;;10.38;97.22
14120;BME280;7138;49.246;9.100;2022-09-29T00:37:11;97237.03;;;10.38;97.35
14120;BME280;7138;49.246;9.100;2022-09-29T00:39:38;97237.97;;;10.36;97.24
14120;BME280;7138;49.246;9.100;2022-09-29T00:42:04;97233.66;;;10.36;97.27
14120;BME280;7138;49.246;9.100;2022-09-29T00:44:57;97235.41;;;10.34;97.11
14120;BME280;7138;49.246;9.100;2022-09-29T00:47:25;97238.19;;;10.27;97.11
14120;BME280;7138;49.246;9.100;2022-09-29T00:49:57;97238.25;;;10.22;97.31
14120;BME280;7138;49.246;9.100;2022-09-29T00:52:31;97228.00;;;10.19;97.17
14120;BME280;7138;49.246;9.100;2022-09-29T00:55:06;97227.13;;;10.20;97.09
14120;BME280;7138;49.246;9.100;2022-09-29T00:57:40;97222.88;;;10.18;96.92
14120;BME280;7138;49.246;9.100;2022-09-29T01:00:11;97226.41;;;10.14;96.41
14120;BME280;7138;49.246;9.100;2022-09-29T01:02:40;97232.69;;;10.01;97.05
14120;BME280;7138;49.246;9.100;2022-09-29T01:05:13;97237.97;;;9.96;97.71
14120;BME280;7138;49.246;9.100;2022-09-29T01:07:42;97233.81;;;9.91;98.15
14120;BME280;7138;49.246;9.100;2022-09-29T01:10:10;97235.47;;;9.92;98.16
14120;BME280;7138;49.246;9.100;2022-09-29T01:12:38;97221.78;;;9.89;98.30
14120;BME280;7138;49.246;9.100;2022-09-29T01:15:05;97219.19;;;9.88;98.74
14120;BME280;7138;49.246;9.100;2022-09-29T01:17:31;97222.56;;;9.93;98.48
14120;BME280;7138;49.246;9.100;2022-09-29T01:20:07;97226.06;;;9.91;98.24
14120;BME280;7138;49.246;9.100;2022-09-29T01:23:29;97230.38;;;9.88;98.48
14120;BME280;7138;49.246;9.100;2022-09-29T01:29:50;97233.09;;;9.84;97.48
14120;BME280;7138;49.246;9.100;2022-09-29T01:32:29;97223.88;;;9.72;99.05
14120;BME280;7138;49.246;9.100;2022-09-29T01:35:06;97225.56;;;9.73;98.81
14120;BME280;7138;49.246;9.100;2022-09-29T01:37:56;97228.19;;;9.70;98.98
14120;BME280;7138;49.246;9.100;2022-09-29T01:40:34;97223.94;;;9.69;99.13
14120;BME280;7138;49.246;9.100;2022-09-29T01:43:08;97232.56;;;9.68;99.29
14120;BME280;7138;49.246;9.100;2022-09-29T01:45:40;97225.63;;;9.70;99.15
14120;BME280;7138;49.246;9.100;2022-09-29T01:48:15;97227.22;;;9.76;99.31
14120;BME280;7138;49.246;9.100;2022-09-29T01:50:47;97235.94;;;9.70;99.67
14120;BME280;7138;49.246;9.100;2022-09-29T01:53:21;97218.06;;;9.61;99.89
14120;BME280;7138;49.246;9.100;2022-09-29T01:55:56;97230.78;;;9.70;99.85
14120;BME280;7138;49.246;9.100;2022-09-29T01:58:29;97229.91;;;9.71;99.91
14120;BME280;7138;49.246;9.100;2022-09-29T02:01:03;97227.25;;;9.74;100.00
14120;BME280;7138;49.246;9.100;2022-09-29T02:03:36;97237.53;;;9.77;100.00
14120;BME280;7138;49.246;9.100;2022-09-29T02:06:12;97243.50;;;9.79;100.00
14120;BME280;7138;49.246;9.100;2022-09-29T02:08:46;97235.72;;;9.81;100.00
14120;BME280;7138;49.246;9.100;2022-09-29T02:11:16;97233.94;;;9.84;100.00
14120;BME280;7138;49.246;9.100;2022-09-29T02:13:49;97239.84;;;9.88;100.00
14120;BME280;7138;49.246;9.100;2022-09-29T02:16:20;97236.38;;;9.91;100.00
14120;BME280;7138;49.246;9.100;2022-09-29T02:18:53;97240.56;;;9.95;100.00
14120;BME280;7138;49.246;9.100;2022-09-29T02:21:21;97236.25;;;9.97;100.00
14120;BME280;7138;49.246;9.100;2022-09-29T02:23:48;97237.91;;;9.99;100.00
14120;BME280;7138;49.246;9.100;2022-09-29T02:26:15;97235.34;;;9.98;100.00
14120;BME280;7138;49.246;9.100;2022-09-29T02:28:44;97236.88;;;10.06;100.00
14120;BME280;7138;49.246;9.100;2022-09-29T02:31:10;97236.84;;;10.08;100.00
14120;BME280;7138;49.246;9.100;2022-09-29T02:33:36;97241.09;;;10.10;100.00
14120;BME280;7138;49.246;9.100;2022-09-29T02:36:17;97244.53;;;10.11;100.00
14120;BME280;7138;49.246;9.100;2022-09-29T02:38:52;97245.34;;;10.13;100.00
14120;BME280;7138;49.246;9.100;2022-09-29T02:41:34;97224.88;;;10.04;100.00
14120;BME280;7138;49.246;9.100;2022-09-29T02:44:39;97244.50;;;10.14;100.00
14120;BME280;7138;49.246;9.100;2022-09-29T02:47:35;97245.34;;;10.13;100.00
14120;BME280;7138;49.246;9.100;2022-09-29T02:50:35;97240.97;;;10.18;100.00
14120;BME280;7138;49.246;9.100;2022-09-29T02:53:20;97246.94;;;10.20;100.00
14120;BME280;7138;49.246;9.100;2022-09-29T02:56:00;97244.31;;;10.21;99.75
14120;BME280;7138;49.246;9.100;2022-09-29T02:58:34;97242.50;;;10.25;99.71
14120;BME280;7138;49.246;9.100;2022-09-29T03:01:03;97244.22;;;10.24;99.67
14120;BME280;7138;49.246;9.100;2022-09-29T03:03:30;97247.78;;;10.20;100.00
14120;BME280;7138;49.246;9.100;2022-09-29T03:05:56;97248.59;;;10.22;99.83
14120;BME280;7138;49.246;9.100;2022-09-29T03:08:23;97241.69;;;10.23;99.77
14120;BME280;7138;49.246;9.100;2022-09-29T03:10:50;97245.03;;;10.28;99.42
14120;BME280;7138;49.246;9.100;2022-09-29T03:13:15;97238.19;;;10.27;99.38
14120;BME280;7138;49.246;9.100;2022-09-29T03:15:41;97240.75;;;10.27;99.28
14120;BME280;7138;49.246;9.100;2022-09-29T03:18:08;97244.16;;;10.27;99.30
14120;BME280;7138;49.246;9.100;2022-09-29T03:20:34;97243.28;;;10.30;99.51
14120;BME280;7138;49.246;9.100;2022-09-29T03:23:00;97242.44;;;10.28;98.89
14120;BME280;7138;49.246;9.100;2022-09-29T03:25:27;97239.00;;;10.27;99.05
14120;BME280;7138;49.246;9.100;2022-09-29T03:27:53;97245.03;;;10.28;99.29
14120;BME280;7138;49.246;9.100;2022-09-29T03:30:19;97245.00;;;10.29;98.92
14120;BME280;7138;49.246;9.100;2022-09-29T03:32:45;97243.34;;;10.27;98.59
14120;BME280;7138;49.246;9.100;2022-09-29T03:35:11;97241.72;;;10.21;98.76
14120;BME280;7138;49.246;9.100;2022-09-29T03:37:37;97245.16;;;10.22;99.02
14120;BME280;7138;49.246;9.100;2022-09-29T03:40:04;97237.47;;;10.20;99.22
14120;BME280;7138;49.246;9.100;2022-09-29T03:42:32;97240.03;;;10.20;98.72
14120;BME280;7138;49.246;9.100;2022-09-29T03:44:58;97233.16;;;10.21;98.92
14120;BME280;7138;49.246;9.100;2022-09-29T03:47:24;97240.91;;;10.19;98.77
14120;BME280;7138;49.246;9.100;2022-09-29T03:49:49;97234.94;;;10.17;98.85
14120;BME280;7138;49.246;9.100;2022-09-29T03:52:15;97240.16;;;10.13;99.27
14120;BME280;7138;49.246;9.100;2022-09-29T03:54:41;97236.72;;;10.12;98.80
14120;BME280;7138;49.246;9.100;2022-09-29T03:57:07;97240.16;;;10.13;98.89
14120;BME280;7138;49.246;9.100;2022-09-29T03:59:34;97240.13;;;10.16;98.68
14120;BME280;7138;49.246;9.100;2022-09-29T04:02:00;97236.69;;;10.15;98.74
14120;BME280;7138;49.246;9.100;2022-09-29T04:04:27;97233.28;;;10.15;98.58
14120;BME280;7138;49.246;9.100;2022-09-29T04:06:53;97229.88;;;10.11;99.33
14120;BME280;7138;49.246;9.100;2022-09-29T04:09:19;97230.75;;;10.10;99.33
14120;BME280;7138;49.246;9.100;2022-09-29T04:11:45;97237.66;;;10.10;99.39
14120;BME280;7138;49.246;9.100;2022-09-29T04:14:10;97237.72;;;10.08;99.16
14120;BME280;7138;49.246;9.100;2022-09-29T04:16:38;97233.47;;;10.06;99.06
14120;BME280;7138;49.246;9.100;2022-09-29T04:19:04;97237.78;;;10.05;98.77
14120;BME280;7138;49.246;9.100;2022-09-29T04:21:30;97236.91;;;10.05;98.79
14120;BME280;7138;49.246;9.100;2022-09-29T04:23:56;97233.59;;;10.00;98.98
14120;BME280;7138;49.246;9.100;2022-09-29T04:26:22;97243.03;;;10.01;98.75
14120;BME280;7138;49.246;9.100;2022-09-29T04:28:48;97239.56;;;10.02;98.66
14120;BME280;7138;49.246;9.100;2022-09-29T04:31:14;97237.84;;;10.02;98.70
14120;BME280;7138;49.246;9.100;2022-09-29T04:33:41;97233.53;;;10.03;98.74
14120;BME280;7138;49.246;9.100;2022-09-29T04:36:07;97240.44;;;10.01;98.28
14120;BME280;7138;49.246;9.100;2022-09-29T04:38:33;97235.34;;;9.98;98.11
14120;BME280;7138;49.246;9.100;2022-09-29T04:40:59;97235.34;;;9.98;97.90
14120;BME280;7138;49.246;9.100;2022-09-29T04:43:25;97224.16;;;9.97;97.83
14120;BME280;7138;49.246;9.100;2022-09-29T04:45:51;97231.97;;;9.94;97.13
14120;BME280;7138;49.246;9.100;2022-09-29T04:48:17;97230.31;;;9.92;97.69
14120;BME280;7138;49.246;9.100;2022-09-29T04:50:44;97226.06;;;9.91;97.84
14120;BME280;7138;49.246;9.100;2022-09-29T04:53:10;97231.16;;;9.92;97.93
14120;BME280;7138;49.246;9.100;2022-09-29T04:55:37;97227.00;;;9.85;98.21
14120;BME280;7138;49.246;9.100;2022-09-29T04:58:03;97222.88;;;9.78;97.94
14120;BME280;7138;49.246;9.100;2022-09-29T05:00:29;97222.09;;;9.74;97.82
14120;BME280;7138;49.246;9.100;2022-09-29T05:02:57;97225.63;;;9.70;97.40
14120;BME280;7138;49.246;9.100;2022-09-29T05:05:23;97229.13;;;9.68;97.62
14120;BME280;7138;49.246;9.100;2022-09-29T05:07:50;97225.69;;;9.67;97.18
14120;BME280;7138;49.246;9.100;2022-09-29T05:10:16;97234.31;;;9.66;96.91
14120;BME280;7138;49.246;9.100;2022-09-29T05:12:47;97230.97;;;9.61;96.57
14120;BME280;7138;49.246;9.100;2022-09-29T05:15:15;97225.19;;;9.50;97.62
14120;BME280;7138;49.246;9.100;2022-09-29T05:17:40;97231.16;;;9.52;98.22
14120;BME280;7138;49.246;9.100;2022-09-29T05:20:07;97234.72;;;9.47;98.47
14120;BME280;7138;49.246;9.100;2022-09-29T05:22:33;97236.44;;;9.46;98.45
14120;BME280;7138;49.246;9.100;2022-09-29T05:25:00;97239.13;;;9.42;98.69
14120;BME280;7138;49.246;9.100;2022-09-29T05:27:26;97243.44;;;9.41;98.60
14120;BME280;7138;49.246;9.100;2022-09-29T05:29:52;97244.28;;;9.42;98.94
14120;BME280;7138;49.246;9.100;2022-09-29T05:32:18;97249.47;;;9.40;99.67
14120;BME280;7138;49.246;9.100;2022-09-29T05:34:44;97249.50;;;9.39;99.97
14120;BME280;7138;49.246;9.100;2022-09-29T05:37:10;97236.78;;;9.29;99.89
14120;BME280;7138;49.246;9.100;2022-09-29T05:39:36;97247.78;;;9.39;99.90
14120;BME280;7138;49.246;9.100;2022-09-29T05:42:04;97247.75;;;9.41;99.90
14120;BME280;7138;49.246;9.100;2022-09-29T05:44:31;97233.28;;;9.32;99.97
14120;BME280;7138;49.246;9.100;2022-09-29T05:46:58;97252.91;;;9.41;99.46
14120;BME280;7138;49.246;9.100;2022-09-29T05:49:24;97254.63;;;9.40;99.12
14120;BME280;7138;49.246;9.100;2022-09-29T05:51:50;97258.06;;;9.41;99.71
14120;BME280;7138;49.246;9.100;2022-09-29T05:54:16;97260.69;;;9.39;99.54
14120;BME280;7138;49.246;9.100;2022-09-29T05:56:42;97257.19;;;9.40;99.29
14120;BME280;7138;49.246;9.100;2022-09-29T05:59:10;97263.25;;;9.39;99.78
14120;BME280;7138;49.246;9.100;2022-09-29T06:01:36;97269.22;;;9.41;99.80
14120;BME280;7138;49.246;9.100;2022-09-29T06:04:02;97268.34;;;9.42;100.00
14120;BME280;7138;49.246;9.100;2022-09-29T06:06:28;97264.81;;;9.46;100.00
14120;BME280;7138;49.246;9.100;2022-09-29T06:08:57;97263.94;;;9.47;100.00
14120;BME280;7138;49.246;9.100;2022-09-29T06:11:26;97267.25;;;9.54;100.00
14120;BME280;7138;49.246;9.100;2022-09-29T06:13:53;97268.94;;;9.56;100.00
14120;BME280;7138;49.246;9.100;2022-09-29T06:16:23;97273.13;;;9.62;100.00
14120;BME280;7138;49.246;9.100;2022-09-29T06:18:49;97278.19;;;9.66;100.00
14120;BME280;7138;49.246;9.100;2022-09-29T06:21:18;97282.44;;;9.67;100.00
14120;BME280;7138;49.246;9.100;2022-09-29T06:23:45;97277.22;;;9.70;100.00
14120;BME280;7138;49.246;9.100;2022-09-29T06:26:14;97277.09;;;9.76;100.00
14120;BME280;7138;49.246;9.100;2022-09-29T06:28:41;97272.66;;;9.84;100.00
14120;BME280;7138;49.246;9.100;2022-09-29T06:31:10;97273.28;;;9.94;100.00
14120;BME280;7138;49.246;9.100;2022-09-29T06:33:38;97280.91;;;10.00;100.00
14120;BME280;7138;49.246;9.100;2022-09-29T06:36:10;97274.72;;;10.07;100.00
14120;BME280;7138;49.246;9.100;2022-09-29T06:38:57;97278.88;;;10.16;100.00
14120;BME280;7138;49.246;9.100;2022-09-29T06:41:23;97285.56;;;10.24;100.00
14120;BME280;7138;49.246;9.100;2022-09-29T06:43:48;97288.84;;;10.32;100.00
14120;BME280;7138;49.246;9.100;2022-09-29T06:46:14;97283.47;;;10.41;100.00
14120;BME280;7138;49.246;9.100;2022-09-29T06:48:41;97293.63;;;10.49;100.00
14120;BME280;7138;49.246;9.100;2022-09-29T06:51:08;97296.88;;;10.57;100.00
14120;BME280;7138;49.246;9.100;2022-09-29T06:53:34;97296.75;;;10.62;100.00
14120;BME280;7138;49.246;9.100;2022-09-29T06:56:01;97294.88;;;10.70;100.00
14120;BME280;7138;49.246;9.100;2022-09-29T06:58:28;97290.31;;;10.79;100.00
14120;BME280;7138;49.246;9.100;2022-09-29T07:00:54;97289.34;;;10.83;100.00
14120;BME280;7138;49.246;9.100;2022-09-29T07:03:20;97287.47;;;10.90;100.00
14120;BME280;7138;49.246;9.100;2022-09-29T07:05:47;97289.97;;;10.93;100.00
14120;BME280;7138;49.246;9.100;2022-09-29T07:08:13;97282.94;;;10.98;100.00
14120;BME280;7138;49.246;9.100;2022-09-29T07:10:39;97288.81;;;11.05;100.00
14120;BME280;7138;49.246;9.100;2022-09-29T07:13:06;97291.25;;;11.11;100.00
14120;BME280;7138;49.246;9.100;2022-09-29T07:15:33;97292.97;;;11.12;99.76
14120;BME280;7138;49.246;9.100;2022-09-29T07:18:00;97301.50;;;11.14;100.00
14120;BME280;7138;49.246;9.100;2022-09-29T07:20:28;97296.34;;;11.14;99.96
14120;BME280;7138;49.246;9.100;2022-09-29T07:22:56;97301.41;;;11.18;100.00
14120;BME280;7138;49.246;9.100;2022-09-29T07:25:23;97307.31;;;11.23;100.00
14120;BME280;7138;49.246;9.100;2022-09-29T07:27:49;97308.84;;;11.30;100.00
14120;BME280;7138;49.246;9.100;2022-09-29T07:30:17;97305.13;;;11.40;100.00
14120;BME280;7138;49.246;9.100;2022-09-29T07:32:43;97306.78;;;11.43;100.00
14120;BME280;7138;49.246;9.100;2022-09-29T07:35:09;97297.16;;;11.48;100.00
14120;BME280;7138;49.246;9.100;2022-09-29T07:37:35;97303.78;;;11.58;100.00
14120;BME280;7138;49.246;9.100;2022-09-29T07:40:03;97306.13;;;11.67;100.00
14120;BME280;7138;49.246;9.100;2022-09-29T07:42:29;97301.69;;;11.72;100.00
14120;BME280;7138;49.246;9.100;2022-09-29T07:44:55;97299.78;;;11.79;100.00
14120;BME280;7138;49.246;9.100;2022-09-29T07:47:22;97307.31;;;11.88;99.75
14120;BME280;7138;49.246;9.100;2022-09-29T07:49:48;97312.31;;;11.94;100.00
14120;BME280;7138;49.246;9.100;2022-09-29T07:52:14;97290.84;;;11.89;99.97
14120;BME280;7138;49.246;9.100;2022-09-29T07:54:40;97317.09;;;12.07;99.17
14120;BME280;7138;49.246;9.100;2022-09-29T07:57:07;97314.31;;;12.14;98.15
14120;BME280;7138;49.246;9.100;2022-09-29T07:59:33;97320.22;;;12.19;98.13
14120;BME280;7138;49.246;9.100;2022-09-29T08:01:59;97321.03;;;12.21;98.42
14120;BME280;7138;49.246;9.100;2022-09-29T08:04:25;97324.38;;;12.24;98.50
14120;BME280;7138;49.246;9.100;2022-09-29T08:06:50;97328.53;;;12.30;98.86
14120;BME280;7138;49.246;9.100;2022-09-29T08:09:16;97324.88;;;12.37;98.36
14120;BME280;7138;49.246;9.100;2022-09-29T08:11:42;97317.69;;;12.45;98.61
14120;BME280;7138;49.246;9.100;2022-09-29T08:14:10;97322.63;;;12.52;97.66
14120;BME280;7138;49.246;9.100;2022-09-29T08:16:37;97333.66;;;12.59;97.07
14120;BME280;7138;49.246;9.100;2022-09-29T08:19:04;97331.03;;;12.60;97.24
14120;BME280;7138;49.246;9.100;2022-09-29T08:21:31;97323.88;;;12.69;98.07
14120;BME280;7138;49.246;9.100;2022-09-29T08:24:02;97333.09;;;12.77;98.15
14120;BME280;7138;49.246;9.100;2022-09-29T08:26:33;97331.78;;;12.92;99.11
14120;BME280;7138;49.246;9.100;2022-09-29T08:29:00;97335.41;;;13.14;98.53
14120;BME280;7138;49.246;9.100;2022-09-29T08:31:29;97312.38;;;13.30;97.35
14120;BME280;7138;49.246;9.100;2022-09-29T08:33:57;97325.09;;;13.62;97.54
14120;BME280;7138;49.246;9.100;2022-09-29T08:36:24;97333.63;;;13.90;94.52
14120;BME280;7138;49.246;9.100;2022-09-29T08:38:52;97336.75;;;14.00;91.81
14120;BME280;7138;49.246;9.100;2022-09-29T08:41:36;97333.63;;;14.13;93.00
14120;BME280;7138;49.246;9.100;2022-09-29T08:44:15;97333.31;;;14.22;89.07
14120;BME280;7138;49.246;9.100;2022-09-29T08:46:51;97341.91;;;14.48;89.13
14120;BME280;7138;49.246;9.100;2022-09-29T08:49:23;97339.69;;;14.60;88.25
14120;BME280;7138;49.246;9.100;2022-09-29T08:51:55;97338.44;;;14.70;89.20
14120;BME280;7138;49.246;9.100;2022-09-29T08:54:29;97341.81;;;14.94;88.79
14120;BME280;7138;49.246;9.100;2022-09-29T08:56:58;97350.03;;;15.05;86.45
14120;BME280;7138;49.246;9.100;2022-09-29T08:59:24;97343.44;;;15.18;87.05
14120;BME280;7138;49.246;9.100;2022-09-29T09:02:22;97353.00;;;15.38;87.84
14120;BME280;7138;49.246;9.100;2022-09-29T09:05:18;97342.06;;;15.52;86.38
14120;BME280;7138;49.246;9.100;2022-09-29T09:08:02;97350.00;;;15.69;85.23
14120;BME280;7138;49.246;9.100;2022-09-29T09:10:41;97344.06;;;15.85;85.38
14120;BME280;7138;49.246;9.100;2022-09-29T09:13:28;97347.72;;;16.02;85.13
14120;BME280;7138;49.246;9.100;2022-09-29T09:16:13;97352.53;;;16.11;82.92
14120;BME280;7138;49.246;9.100;2022-09-29T09:19:02;97357.31;;;16.20;83.32
14120;BME280;7138;49.246;9.100;2022-09-29T09:21:41;97353.44;;;16.28;83.08
14120;BME280;7138;49.246;9.100;2022-09-29T09:24:16;97352.75;;;16.44;83.60
14120;BME280;7138;49.246;9.100;2022-09-29T09:26:46;97343.03;;;16.47;82.79
14120;BME280;7138;49.246;9.100;2022-09-29T09:29:21;97351.56;;;16.69;80.78
14120;BME280;7138;49.246;9.100;2022-09-29T09:31:54;97353.56;;;16.83;82.76
14120;BME280;7138;49.246;9.100;2022-09-29T09:34:30;97336.44;;;16.94;80.75
14120;BME280;7138;49.246;9.100;2022-09-29T09:37:02;97344.00;;;17.18;81.52
14120;BME280;7138;49.246;9.100;2022-09-29T09:39:33;97354.25;;;17.39;81.58
14120;BME280;7138;49.246;9.100;2022-09-29T09:42:08;97346.47;;;17.57;81.24
14120;BME280;7138;49.246;9.100;2022-09-29T09:44:42;97354.75;;;17.82;79.73
14120;BME280;7138;49.246;9.100;2022-09-29T09:47:24;97355.56;;;17.99;76.60
14120;BME280;7138;49.246;9.100;2022-09-29T09:49:56;97361.97;;;17.94;77.35
14120;BME280;7138;49.246;9.100;2022-09-29T09:52:30;97356.56;;;17.97;75.94
14120;BME280;7138;49.246;9.100;2022-09-29T09:55:02;97344.94;;;18.02;78.02
14120;BME280;7138;49.246;9.100;2022-09-29T09:57:57;97353.97;;;18.30;78.27
14120;BME280;7138;49.246;9.100;2022-09-29T10:00:32;97355.59;;;18.32;75.90
14120;BME280;7138;49.246;9.100;2022-09-29T10:03:03;97363.88;;;18.40;76.35
14120;BME280;7138;49.246;9.100;2022-09-29T10:05:34;97359.88;;;18.33;73.07
14120;BME280;7138;49.246;9.100;2022-09-29T10:08:04;97362.50;;;18.33;75.80
14120;BME280;7138;49.246;9.100;2022-09-29T10:10:31;97362.00;;;18.42;75.31
14120;BME280;7138;49.246;9.100;2022-09-29T10:13:01;97359.31;;;18.44;74.42
14120;BME280;7138;49.246;9.100;2022-09-29T10:15:32;97359.81;;;18.35;73.95
14120;BME280;7138;49.246;9.100;2022-09-29T10:18:06;97365.69;;;18.23;72.72
14120;BME280;7138;49.246;9.100;2022-09-29T10:20:38;97365.00;;;18.19;73.24
14120;BME280;7138;49.246;9.100;2022-09-29T10:23:31;97362.97;;;18.24;74.10
14120;BME280;7138;49.246;9.100;2022-09-29T10:26:03;97368.91;;;18.28;74.98
14120;BME280;7138;49.246;9.100;2022-09-29T10:28:40;97376.38;;;18.35;74.08
14120;BME280;7138;49.246;9.100;2022-09-29T10:31:23;97373.13;;;18.30;71.94
14120;BME280;7138;49.246;9.100;2022-09-29T10:33:56;97370.34;;;18.33;74.71
14120;BME280;7138;49.246;9.100;2022-09-29T10:36:27;97358.28;;;18.31;73.84
14120;BME280;7138;49.246;9.100;2022-09-29T10:38:54;97368.94;;;18.43;73.92
14120;BME280;7138;49.246;9.100;2022-09-29T10:41:21;97378.31;;;18.47;74.06
14120;BME280;7138;49.246;9.100;2022-09-29T10:43:48;97375.66;;;18.49;74.68
14120;BME280;7138;49.246;9.100;2022-09-29T10:46:50;97376.50;;;18.49;73.78
14120;BME280;7138;49.246;9.100;2022-09-29T10:49:19;97372.16;;;18.48;74.94
14120;BME280;7138;49.246;9.100;2022-09-29T10:51:58;97378.88;;;18.54;74.57
14120;BME280;7138;49.246;9.100;2022-09-29T10:54:27;97369.91;;;18.58;74.63
14120;BME280;7138;49.246;9.100;2022-09-29T10:56:56;97370.44;;;18.65;74.64
14120;BME280;7138;49.246;9.100;2022-09-29T10:59:24;97366.56;;;18.72;74.70
14120;BME280;7138;49.246;9.100;2022-09-29T11:01:54;97365.53;;;18.74;74.55
14120;BME280;7138;49.246;9.100;2022-09-29T11:04:26;97370.84;;;18.88;73.38
14120;BME280;7138;49.246;9.100;2022-09-29T11:06:54;97370.44;;;18.96;73.47
14120;BME280;7138;49.246;9.100;2022-09-29T11:09:30;97368.91;;;18.92;70.73
14120;BME280;7138;49.246;9.100;2022-09-29T11:12:00;97369.19;;;18.87;71.75
14120;BME280;7138;49.246;9.100;2022-09-29T11:14:30;97367.38;;;18.88;72.06
14120;BME280;7138;49.246;9.100;2022-09-29T11:16:59;97369.19;;;18.87;72.00
14120;BME280;7138;49.246;9.100;2022-09-29T11:19:28;97368.16;;;18.90;72.25
14120;BME280;7138;49.246;9.100;2022-09-29T11:22:35;97375.00;;;18.92;71.16
14120;BME280;7138;49.246;9.100;2022-09-29T11:25:20;97373.31;;;18.91;70.58
14120;BME280;7138;49.246;9.100;2022-09-29T11:28:03;97365.88;;;18.84;69.38
14120;BME280;7138;49.246;9.100;2022-09-29T11:30:47;97378.38;;;18.79;69.05
14120;BME280;7138;49.246;9.100;2022-09-29T11:33:29;97380.69;;;18.69;71.28
14120;BME280;7138;49.246;9.100;2022-09-29T11:36:11;97387.91;;;18.64;70.55
14120;BME280;7138;49.246;9.100;2022-09-29T11:38:57;97375.66;;;18.65;71.19
14120;BME280;7138;49.246;9.100;2022-09-29T11:41:53;97382.59;;;18.66;70.58
14120;BME280;7138;49.246;9.100;2022-09-29T11:44:51;97382.78;;;18.63;71.21
14120;BME280;7138;49.246;9.100;2022-09-29T11:48:00;97381.56;;;18.52;69.89
14120;BME280;7138;49.246;9.100;2022-09-29T11:50:41;97385.41;;;18.45;71.42
14120;BME280;7138;49.246;9.100;2022-09-29T11:53:31;97381.75;;;18.32;69.10
14120;BME280;7138;49.246;9.100;2022-09-29T11:56:24;97384.59;;;18.28;71.15
14120;BME280;7138;49.246;9.100;2022-09-29T11:59:21;97382.69;;;18.31;72.36
14120;BME280;7138;49.246;9.100;2022-09-29T12:02:13;97380.06;;;18.31;71.47
14120;BME280;7138;49.246;9.100;2022-09-29T12:04:55;97384.91;;;18.39;73.09
14120;BME280;7138;49.246;9.100;2022-09-29T12:07:36;97377.13;;;18.37;70.42
14120;BME280;7138;49.246;9.100;2022-09-29T12:10:24;97376.78;;;18.43;72.41
14120;BME280;7138;49.246;9.100;2022-09-29T12:13:05;97379.03;;;18.51;71.65
14120;BME280;7138;49.246;9.100;2022-09-29T12:15:50;97362.38;;;18.52;70.57
14120;BME280;7138;49.246;9.100;2022-09-29T12:18:22;97366.78;;;18.51;70.74
14120;BME280;7138;49.246;9.100;2022-09-29T12:20:53;97374.72;;;18.50;70.57
14120;BME280;7138;49.246;9.100;2022-09-29T12:23:24;97372.00;;;18.51;72.45
14120;BME280;7138;49.246;9.100;2022-09-29T12:25:57;97370.75;;;18.59;72.18
14120;BME280;7138;49.246;9.100;2022-09-29T12:28:33;97371.34;;;18.64;72.17
14120;BME280;7138;49.246;9.100;2022-09-29T12:31:07;97367.66;;;18.68;70.72
14120;BME280;7138;49.246;9.100;2022-09-29T12:33:39;97366.13;;;18.64;70.65
14120;BME280;7138;49.246;9.100;2022-09-29T12:36:24;97371.94;;;18.53;71.13
14120;BME280;7138;49.246;9.100;2022-09-29T12:39:19;97368.78;;;18.46;69.97
14120;BME280;7138;49.246;9.100;2022-09-29T12:41:53;97371.81;;;18.39;71.53
14120;BME280;7138;49.246;9.100;2022-09-29T12:44:29;97373.66;;;18.37;71.91
14120;BME280;7138;49.246;9.100;2022-09-29T12:47:03;97371.44;;;18.29;71.42
14120;BME280;7138;49.246;9.100;2022-09-29T12:49:42;97364.84;;;18.22;70.99
14120;BME280;7138;49.246;9.100;2022-09-29T12:52:19;97362.06;;;18.25;70.62
14120;BME280;7138;49.246;9.100;2022-09-29T12:54:53;97359.69;;;18.21;71.33
14120;BME280;7138;49.246;9.100;2022-09-29T12:57:24;97362.06;;;18.25;70.52
14120;BME280;7138;49.246;9.100;2022-09-29T12:59:58;97359.13;;;18.31;71.23
14120;BME280;7138;49.246;9.100;2022-09-29T13:02:58;97359.72;;;18.36;68.96
14120;BME280;7138;49.246;9.100;2022-09-29T13:05:51;97368.56;;;18.34;68.71
14120;BME280;7138;49.246;9.100;2022-09-29T13:09:08;97366.13;;;18.31;71.32
14120;BME280;7138;49.246;9.100;2022-09-29T13:12:12;97363.50;;;18.31;71.23
14120;BME280;7138;49.246;9.100;2022-09-29T13:15:06;97366.13;;;18.31;69.51
14120;BME280;7138;49.246;9.100;2022-09-29T13:18:05;97367.81;;;18.32;69.81
14120;BME280;7138;49.246;9.100;2022-09-29T13:21:03;97364.94;;;18.36;70.30
14120;BME280;7138;49.246;9.100;2022-09-29T13:23:49;97365.25;;;18.47;70.61
14120;BME280;7138;49.246;9.100;2022-09-29T13:26:58;97372.53;;;18.58;69.97
14120;BME280;7138;49.246;9.100;2022-09-29T13:29:31;97365.34;;;18.62;70.18
14120;BME280;7138;49.246;9.100;2022-09-29T13:32:04;97362.50;;;18.66;71.07
14120;BME280;7138;49.246;9.100;2022-09-29T13:34:33;97372.81;;;18.69;71.13
14120;BME280;7138;49.246;9.100;2022-09-29T13:37:10;97372.38;;;18.77;70.40
14120;BME280;7138;49.246;9.100;2022-09-29T13:39:41;97370.50;;;18.79;69.52
14120;BME280;7138;49.246;9.100;2022-09-29T13:42:39;97374.66;;;18.83;70.17
14120;BME280;7138;49.246;9.100;2022-09-29T13:45:41;97370.19;;;18.85;69.81